createdAt,value
2023-02-16T00:00:37.580Z,100.00
2023-02-16T00:03:40.714Z,100.00
2023-02-16T00:06:42.350Z,100.00
2023-02-16T00:09:44.154Z,100.00
2023-02-16T00:13:04.510Z,100.00
2023-02-16T00:16:08.793Z,100.00
2023-02-16T00:19:19.252Z,100.00
2023-02-16T00:22:20.881Z,100.00
2023-02-16T00:25:22.444Z,100.00
2023-02-16T00:28:24.318Z,100.00
2023-02-16T00:31:27.776Z,100.00
2023-02-16T00:34:36.242Z,100.00
2023-02-16T00:37:37.798Z,100.00
2023-02-16T00:47:21.844Z,100.00
2023-02-16T00:50:27.164Z,100.00
2023-02-16T00:53:28.857Z,100.00
2023-02-16T00:56:30.731Z,100.00
2023-02-16T00:59:32.608Z,100.00
2023-02-16T01:02:34.468Z,100.00
2023-02-16T01:05:37.526Z,100.00
2023-02-16T01:08:57.826Z,100.00
2023-02-16T01:12:00.128Z,100.00
2023-02-16T01:15:01.808Z,100.00
2023-02-16T01:18:05.065Z,100.00
2023-02-16T01:21:08.169Z,100.00
2023-02-16T01:24:10.350Z,100.00
2023-02-16T01:27:13.678Z,100.00
2023-02-16T01:30:17.686Z,100.00
2023-02-16T01:33:19.783Z,100.00
2023-02-16T01:36:26.442Z,100.00
2023-02-16T01:39:28.210Z,100.00
2023-02-16T01:42:35.784Z,100.00
2023-02-16T01:45:40.591Z,100.00
2023-02-16T01:48:42.250Z,100.00
2023-02-16T01:51:51.401Z,100.00
2023-02-16T01:54:55.961Z,100.00
2023-02-16T01:58:00.116Z,100.00
2023-02-16T02:01:35.343Z,100.00
2023-02-16T02:04:59.075Z,100.00
2023-02-16T02:08:06.881Z,100.00
2023-02-16T02:11:11.659Z,100.00
2023-02-16T02:14:15.722Z,100.00
2023-02-16T02:17:18.881Z,100.00
2023-02-16T02:20:23.347Z,100.00
2023-02-16T02:23:37.596Z,100.00
2023-02-16T02:26:54.335Z,100.00
2023-02-16T02:30:02.854Z,100.00
2023-02-16T02:33:15.397Z,100.00
2023-02-16T02:36:22.452Z,100.00
2023-02-16T02:39:32.382Z,100.00
2023-02-16T02:42:41.144Z,100.00
2023-02-16T02:45:45.293Z,100.00
2023-02-16T02:48:46.983Z,100.00
2023-02-16T02:51:49.626Z,100.00
2023-02-16T02:55:09.942Z,100.00
2023-02-16T02:58:32.530Z,100.00
2023-02-16T03:01:35.623Z,100.00
2023-02-16T03:04:37.321Z,100.00
2023-02-16T03:07:48.321Z,100.00
2023-02-16T03:11:11.720Z,100.00
2023-02-16T03:14:16.722Z,100.00
2023-02-16T03:17:37.278Z,100.00
2023-02-16T03:20:58.595Z,100.00
2023-02-16T03:24:20.041Z,100.00
2023-02-16T03:27:42.923Z,100.00
2023-02-16T03:30:46.911Z,100.00
2023-02-16T03:33:54.617Z,100.00
2023-02-16T03:36:58.970Z,100.00
2023-02-16T03:40:19.524Z,100.00
2023-02-16T03:43:24.377Z,100.00
2023-02-16T03:46:28.061Z,100.00
2023-02-16T03:49:29.953Z,100.00
2023-02-16T03:52:31.876Z,100.00
2023-02-16T03:55:34.149Z,100.00
2023-02-16T03:58:35.838Z,100.00
2023-02-16T04:01:39.177Z,100.00
2023-02-16T04:04:40.758Z,100.00
2023-02-16T04:07:43.532Z,100.00
2023-02-16T04:10:45.228Z,100.00
2023-02-16T04:13:46.991Z,100.00
2023-02-16T04:16:50.340Z,100.00
2023-02-16T04:19:51.984Z,100.00
2023-02-16T04:22:54.148Z,100.00
2023-02-16T04:25:55.963Z,100.00
2023-02-16T04:28:57.911Z,100.00
2023-02-16T04:32:01.316Z,100.00
2023-02-16T04:35:03.064Z,100.00
2023-02-16T04:38:04.891Z,100.00
2023-02-16T04:41:06.531Z,100.00
2023-02-16T04:44:08.627Z,100.00
2023-02-16T04:47:11.702Z,100.00
2023-02-16T04:50:13.595Z,100.00
2023-02-16T04:53:15.245Z,100.00
2023-02-16T04:56:17.365Z,100.00
2023-02-16T04:59:19.425Z,100.00
2023-02-16T05:02:22.863Z,100.00
2023-02-16T05:05:24.635Z,100.00
2023-02-16T05:08:26.514Z,100.00
2023-02-16T05:11:46.702Z,100.00
2023-02-16T05:14:48.618Z,100.00
2023-02-16T05:17:51.897Z,100.00
2023-02-16T05:21:12.550Z,100.00
2023-02-16T05:24:14.422Z,100.00
2023-02-16T05:27:17.232Z,100.00
2023-02-16T05:30:19.029Z,100.00
2023-02-16T05:33:22.318Z,100.00
2023-02-16T05:36:24.242Z,100.00
2023-02-16T05:39:25.974Z,100.00
2023-02-16T05:42:28.058Z,100.00
2023-02-16T05:45:29.802Z,100.00
2023-02-16T05:48:32.901Z,100.00
2023-02-16T05:51:34.892Z,100.00
2023-02-16T05:54:37.304Z,100.00
2023-02-16T05:57:39.148Z,100.00
2023-02-16T06:00:40.770Z,100.00
2023-02-16T06:03:44.215Z,100.00
2023-02-16T06:06:46.020Z,100.00
2023-02-16T06:09:47.841Z,100.00
2023-02-16T06:12:49.687Z,100.00
2023-02-16T06:15:52.557Z,100.00
2023-02-16T06:18:56.195Z,100.00
2023-02-16T06:21:57.950Z,100.00
2023-02-16T06:24:59.644Z,100.00
2023-02-16T06:28:01.571Z,100.00
2023-02-16T06:31:03.777Z,100.00
2023-02-16T06:34:07.475Z,100.00
2023-02-16T06:37:09.234Z,100.00
2023-02-16T06:40:11.842Z,100.00
2023-02-16T06:43:13.774Z,100.00
2023-02-16T06:46:15.662Z,100.00
2023-02-16T06:49:19.948Z,100.00
2023-02-16T06:52:22.026Z,100.00
2023-02-16T06:55:23.960Z,100.00
2023-02-16T06:58:25.555Z,100.00
2023-02-16T07:01:27.988Z,100.00
2023-02-16T07:04:31.082Z,100.00
2023-02-16T07:07:33.054Z,100.00
2023-02-16T07:10:47.748Z,100.00
2023-02-16T07:13:51.584Z,100.00
2023-02-16T07:16:53.251Z,100.00
2023-02-16T07:19:58.881Z,100.00
2023-02-16T07:23:01.521Z,100.00
2023-02-16T07:26:03.544Z,100.00
2023-02-16T07:29:05.619Z,100.00
2023-02-16T07:32:07.355Z,100.00
2023-02-16T07:35:10.847Z,100.00
2023-02-16T07:38:13.122Z,100.00
2023-02-16T07:41:15.308Z,100.00
2023-02-16T07:44:16.864Z,100.00
2023-02-16T07:47:18.496Z,100.00
2023-02-16T07:50:21.605Z,100.00
2023-02-16T07:53:23.209Z,100.00
2023-02-16T07:56:26.397Z,100.00
2023-02-16T07:59:28.198Z,100.00
2023-02-16T08:02:30.095Z,100.00
2023-02-16T08:05:34.079Z,100.00
2023-02-16T08:08:36.372Z,100.00
2023-02-16T08:11:38.062Z,100.00
2023-02-16T08:14:40.118Z,100.00
2023-02-16T08:17:41.691Z,100.00
2023-02-16T08:21:03.860Z,100.00
2023-02-16T08:24:07.878Z,100.00
2023-02-16T08:27:09.770Z,100.00
2023-02-16T08:30:12.973Z,100.00
2023-02-16T08:33:14.824Z,100.00
2023-02-16T08:36:18.910Z,100.00
2023-02-16T08:39:21.286Z,100.00
2023-02-16T08:42:23.033Z,100.00
2023-02-16T08:45:24.844Z,100.00
2023-02-16T08:48:28.826Z,100.00
2023-02-16T08:51:34.777Z,100.00
2023-02-16T08:54:36.407Z,100.00
2023-02-16T08:57:38.027Z,100.00
2023-02-16T09:00:39.931Z,100.00
2023-02-16T09:03:42.924Z,100.00
2023-02-16T09:06:46.409Z,100.00
2023-02-16T09:09:48.346Z,100.00
2023-02-16T09:12:49.990Z,100.00
2023-02-16T09:15:51.739Z,100.00
2023-02-16T09:18:53.774Z,100.00
2023-02-16T09:21:56.967Z,100.00
2023-02-16T09:24:58.526Z,100.00
2023-02-16T09:28:01.065Z,100.00
2023-02-16T09:31:08.660Z,100.00
2023-02-16T09:34:16.274Z,100.00
2023-02-16T09:37:19.260Z,100.00
2023-02-16T09:40:21.099Z,100.00
2023-02-16T09:43:33.728Z,100.00
2023-02-16T09:46:36.782Z,100.00
2023-02-16T09:49:40.932Z,100.00
2023-02-16T09:52:47.584Z,100.00
2023-02-16T09:55:54.521Z,100.00
2023-02-16T09:58:58.180Z,100.00
2023-02-16T10:02:03.020Z,100.00
2023-02-16T10:05:24.012Z,100.00
2023-02-16T10:08:30.100Z,100.00
2023-02-16T10:11:47.563Z,100.00
2023-02-16T10:14:51.670Z,100.00
2023-02-16T10:17:56.008Z,100.00
2023-02-16T10:20:59.837Z,100.00
2023-02-16T10:24:03.989Z,100.00
2023-02-16T10:27:08.511Z,100.00
2023-02-16T10:30:15.265Z,100.00
2023-02-16T10:33:22.885Z,100.00
2023-02-16T10:36:29.258Z,100.00
2023-02-16T10:39:36.830Z,100.00
2023-02-16T10:42:43.757Z,100.00
2023-02-16T10:45:51.974Z,100.00
2023-02-16T10:48:55.134Z,100.00
2023-02-16T10:51:57.178Z,100.00
2023-02-16T10:55:03.823Z,100.00
2023-02-16T10:58:13.613Z,100.00
2023-02-16T11:01:16.412Z,100.00
2023-02-16T11:04:33.294Z,100.00
2023-02-16T11:11:09.457Z,100.00
2023-02-16T11:14:22.385Z,100.00
2023-02-16T11:17:24.909Z,99.92
2023-02-16T11:20:33.143Z,99.70
2023-02-16T11:23:35.334Z,99.31
2023-02-16T11:26:39.206Z,98.70
2023-02-16T11:29:41.068Z,98.42
2023-02-16T11:32:43.002Z,99.35
2023-02-16T11:35:44.855Z,98.69
2023-02-16T11:38:56.282Z,98.58
2023-02-16T11:42:01.865Z,97.47
2023-02-16T11:45:04.830Z,96.16
2023-02-16T11:48:07.420Z,97.00
2023-02-16T11:51:10.701Z,96.91
2023-02-16T11:54:16.880Z,96.60
2023-02-16T11:57:24.785Z,96.84
2023-02-16T12:00:27.658Z,96.25
2023-02-16T12:03:56.945Z,94.52
2023-02-16T12:07:03.720Z,93.65
2023-02-16T12:10:08.797Z,93.21
2023-02-16T12:13:18.095Z,91.76
2023-02-16T12:16:27.982Z,93.15
2023-02-16T12:19:36.816Z,92.25
2023-02-16T12:22:41.756Z,92.08
2023-02-16T12:25:49.293Z,91.74
2023-02-16T12:29:02.934Z,91.18
2023-02-16T12:32:22.308Z,91.84
2023-02-16T12:35:41.436Z,91.57
2023-02-16T12:38:48.648Z,91.54
2023-02-16T12:41:57.390Z,89.96
2023-02-16T12:45:03.096Z,89.99
2023-02-16T12:48:21.806Z,90.37
2023-02-16T12:51:26.601Z,90.99
2023-02-16T12:54:30.097Z,91.03
2023-02-16T12:57:32.040Z,91.07
2023-02-16T13:00:46.194Z,91.75
2023-02-16T13:03:50.556Z,92.02
2023-02-16T13:06:56.861Z,92.74
2023-02-16T13:10:01.932Z,92.65
2023-02-16T13:13:06.539Z,92.22
2023-02-16T13:16:28.725Z,92.42
2023-02-16T13:19:31.842Z,91.78
2023-02-16T13:22:49.649Z,92.17
2023-02-16T13:25:57.991Z,91.18
2023-02-16T13:29:14.794Z,91.35
2023-02-16T13:32:28.472Z,90.90
2023-02-16T13:35:40.587Z,90.76
2023-02-16T13:39:15.651Z,90.00
2023-02-16T13:42:38.581Z,90.63
2023-02-16T13:45:41.186Z,90.51
2023-02-16T13:48:47.639Z,90.27
2023-02-16T13:51:49.945Z,89.80
2023-02-16T13:54:51.603Z,90.14
2023-02-16T13:58:04.831Z,89.36
2023-02-16T14:01:25.258Z,89.71
2023-02-16T14:04:45.567Z,88.75
2023-02-16T14:08:08.275Z,88.79
2023-02-16T14:11:10.904Z,89.08
2023-02-16T14:14:25.517Z,88.42
2023-02-16T14:17:28.445Z,88.55
2023-02-16T14:20:30.291Z,88.23
2023-02-16T14:23:37.374Z,88.15
2023-02-16T14:26:52.653Z,87.60
2023-02-16T14:29:56.796Z,88.52
2023-02-16T14:33:01.639Z,88.30
2023-02-16T14:36:12.122Z,88.41
2023-02-16T14:39:18.858Z,88.49
2023-02-16T14:42:26.425Z,88.88
2023-02-16T14:45:42.867Z,88.60
2023-02-16T14:48:50.543Z,87.86
2023-02-16T14:52:03.822Z,88.44
2023-02-16T14:55:36.387Z,88.56
2023-02-16T14:58:44.731Z,88.91
2023-02-16T15:01:47.127Z,89.50
2023-02-16T15:04:48.982Z,89.24
2023-02-16T15:07:52.428Z,89.99
2023-02-16T15:10:58.452Z,89.67
2023-02-16T15:14:08.016Z,90.03
2023-02-16T15:17:10.391Z,90.89
2023-02-16T15:20:19.676Z,91.49
2023-02-16T15:23:22.516Z,91.60
2023-02-16T15:26:25.301Z,92.21
2023-02-16T15:29:29.383Z,91.52
2023-02-16T15:32:32.198Z,91.59
2023-02-16T15:35:35.650Z,91.78
2023-02-16T15:38:38.989Z,92.88
2023-02-16T15:41:43.573Z,93.66
2023-02-16T15:44:48.136Z,93.24
2023-02-16T15:47:49.847Z,94.07
2023-02-16T15:50:53.538Z,93.96
2023-02-16T15:53:56.487Z,94.28
2023-02-16T15:56:59.142Z,94.60
2023-02-16T16:00:03.845Z,95.07
2023-02-16T16:03:15.870Z,95.18
2023-02-16T16:06:17.428Z,95.29
2023-02-16T16:09:22.579Z,95.27
2023-02-16T16:12:25.086Z,95.42
2023-02-16T16:15:29.712Z,95.73
2023-02-16T16:18:37.390Z,96.56
2023-02-16T16:21:45.758Z,96.91
2023-02-16T16:24:48.620Z,96.83
2023-02-16T16:27:50.406Z,96.61
2023-02-16T16:31:07.157Z,96.64
2023-02-16T16:34:10.781Z,97.29
2023-02-16T16:37:22.166Z,97.36
2023-02-16T16:40:25.887Z,97.52
2023-02-16T16:43:28.460Z,98.39
2023-02-16T16:46:32.672Z,99.34
2023-02-16T16:49:37.305Z,99.31
2023-02-16T16:52:40.628Z,98.93
2023-02-16T16:55:42.443Z,98.95
2023-02-16T16:58:47.629Z,99.26
2023-02-16T17:01:52.850Z,99.55
2023-02-16T17:04:54.592Z,99.59
2023-02-16T17:07:56.263Z,100.00
2023-02-16T17:10:58.066Z,100.00
2023-02-16T17:14:05.001Z,100.00
2023-02-16T17:17:11.724Z,100.00
2023-02-16T17:20:13.524Z,100.00
2023-02-16T17:23:16.424Z,100.00
2023-02-16T17:26:18.075Z,100.00
2023-02-16T17:29:19.770Z,100.00
2023-02-16T17:32:24.342Z,100.00
2023-02-16T17:35:26.221Z,100.00
2023-02-16T17:38:28.012Z,100.00
2023-02-16T17:41:30.202Z,100.00
2023-02-16T17:44:31.815Z,100.00
2023-02-16T17:47:34.839Z,100.00
2023-02-16T17:50:36.467Z,100.00
2023-02-16T17:53:38.142Z,100.00
2023-02-16T17:56:40.020Z,100.00
2023-02-16T17:59:42.480Z,100.00
2023-02-16T18:02:45.486Z,100.00
2023-02-16T18:05:47.123Z,100.00
2023-02-16T18:08:48.602Z,100.00
2023-02-16T18:11:50.561Z,100.00
2023-02-16T18:14:52.258Z,100.00
2023-02-16T18:17:55.569Z,100.00
2023-02-16T18:20:57.192Z,100.00
2023-02-16T18:23:58.778Z,100.00
2023-02-16T18:27:00.484Z,100.00
2023-02-16T18:30:02.242Z,100.00
2023-02-16T18:33:05.146Z,100.00
2023-02-16T18:36:08.438Z,100.00
2023-02-16T18:39:10.357Z,100.00
2023-02-16T18:42:12.027Z,100.00
2023-02-16T18:45:13.837Z,100.00
2023-02-16T18:48:16.754Z,100.00
2023-02-16T18:51:18.723Z,100.00
2023-02-16T18:54:20.278Z,100.00
2023-02-16T18:57:22.658Z,100.00
2023-02-16T19:00:24.312Z,100.00
2023-02-16T19:03:29.818Z,100.00
2023-02-16T19:06:31.927Z,100.00
2023-02-16T19:09:33.751Z,100.00
2023-02-16T19:12:35.337Z,100.00
2023-02-16T19:15:37.968Z,100.00
2023-02-16T19:18:40.974Z,100.00
2023-02-16T19:21:44.333Z,100.00
2023-02-16T19:24:46.101Z,100.00
2023-02-16T19:27:48.271Z,100.00
2023-02-16T19:30:50.299Z,100.00
2023-02-16T19:33:53.313Z,100.00
2023-02-16T19:36:55.084Z,100.00
2023-02-16T19:39:56.695Z,100.00
2023-02-16T19:42:58.433Z,100.00
2023-02-16T19:46:02.267Z,100.00
2023-02-16T19:49:05.346Z,100.00
2023-02-16T19:52:07.010Z,100.00
2023-02-16T19:55:10.633Z,100.00
2023-02-16T19:58:13.093Z,100.00
2023-02-16T20:01:16.028Z,100.00
2023-02-16T20:04:19.125Z,100.00
2023-02-16T20:07:20.878Z,100.00
2023-02-16T20:10:22.541Z,100.00
2023-02-16T20:13:24.323Z,100.00
2023-02-16T20:16:27.059Z,100.00
2023-02-16T20:19:30.069Z,100.00
2023-02-16T20:22:31.732Z,100.00
2023-02-16T20:25:33.519Z,100.00
2023-02-16T20:28:35.287Z,100.00
2023-02-16T20:31:41.273Z,100.00
2023-02-16T20:34:44.371Z,100.00
2023-02-16T20:37:46.163Z,100.00
2023-02-16T20:40:48.121Z,100.00
2023-02-16T20:43:50.164Z,100.00
2023-02-16T20:46:52.002Z,100.00
2023-02-16T20:49:55.157Z,100.00
2023-02-16T20:52:56.737Z,100.00
2023-02-16T20:56:02.797Z,100.00
2023-02-16T20:59:04.907Z,100.00
2023-02-16T21:02:07.043Z,100.00
2023-02-16T21:05:10.295Z,100.00
2023-02-16T21:08:11.995Z,100.00
2023-02-16T21:11:14.073Z,100.00
2023-02-16T21:14:15.820Z,100.00
2023-02-16T21:17:17.939Z,100.00
2023-02-16T21:20:21.019Z,100.00
2023-02-16T21:23:22.646Z,100.00
2023-02-16T21:26:25.287Z,100.00
2023-02-16T21:29:27.055Z,100.00
2023-02-16T21:32:28.952Z,100.00
2023-02-16T21:35:32.914Z,100.00
2023-02-16T21:38:35.499Z,100.00
2023-02-16T21:41:37.045Z,100.00
2023-02-16T21:44:43.219Z,100.00
2023-02-16T21:48:04.529Z,100.00
2023-02-16T21:51:07.601Z,100.00
2023-02-16T21:54:12.643Z,100.00
2023-02-16T21:57:15.435Z,100.00
2023-02-16T22:00:17.376Z,100.00
2023-02-16T22:03:20.373Z,100.00
2023-02-16T22:06:24.718Z,100.00
2023-02-16T22:09:26.297Z,100.00
2023-02-16T22:12:28.103Z,100.00
2023-02-16T22:15:29.774Z,100.00
2023-02-16T22:18:31.318Z,100.00
2023-02-16T22:21:38.673Z,100.00
2023-02-16T22:24:40.612Z,100.00
2023-02-16T22:27:42.470Z,100.00
2023-02-16T22:30:45.407Z,100.00
2023-02-16T22:33:47.194Z,100.00
2023-02-16T22:36:50.429Z,100.00
2023-02-16T22:39:55.219Z,100.00
2023-02-16T22:43:00.254Z,100.00
2023-02-16T22:46:05.028Z,100.00
2023-02-16T22:49:07.134Z,100.00
2023-02-16T22:52:11.696Z,100.00
2023-02-16T22:55:13.459Z,100.00
2023-02-16T22:58:15.159Z,100.00
2023-02-16T23:01:18.333Z,100.00
2023-02-16T23:04:20.267Z,100.00
2023-02-16T23:07:23.469Z,100.00
2023-02-16T23:10:25.120Z,100.00
2023-02-16T23:13:31.594Z,100.00
2023-02-16T23:16:33.439Z,100.00
2023-02-16T23:19:35.187Z,100.00
2023-02-16T23:22:38.445Z,100.00
2023-02-16T23:25:43.634Z,100.00
2023-02-16T23:28:45.600Z,100.00
2023-02-16T23:31:48.152Z,100.00
2023-02-16T23:34:49.851Z,100.00
2023-02-16T23:37:52.754Z,100.00
2023-02-16T23:40:55.220Z,100.00
2023-02-16T23:43:56.897Z,100.00
2023-02-16T23:46:58.515Z,100.00
2023-02-16T23:50:00.827Z,100.00
2023-02-16T23:53:03.866Z,100.00
2023-02-16T23:56:06.826Z,100.00
2023-02-16T23:59:08.670Z,100.00
